sensor_id;sensor_type;location;lat;lon;timestamp;pressure;altitude;pressure_sealevel;temperature;humidity
46506;BME280;32220;49.808;9.968;2023-11-21T09:56:55;98596.59;;;10.78;100.00
46506;BME280;32220;49.808;9.968;2023-11-21T09:59:24;98575.53;;;11.28;100.00
46506;BME280;32220;49.808;9.968;2023-11-21T10:01:52;98594.88;;;11.92;100.00
46506;BME280;32220;49.808;9.968;2023-11-21T10:04:19;98601.47;;;12.46;100.00
46506;BME280;32220;49.808;9.968;2023-11-21T10:06:47;98579.81;;;12.75;100.00
46506;BME280;32220;49.808;9.968;2023-11-21T10:09:16;98603.59;;;13.11;100.00
46506;BME280;32220;49.808;9.968;2023-11-21T10:11:47;98616.63;;;13.49;100.00
46506;BME280;32220;49.808;9.968;2023-11-21T10:14:19;98599.13;;;13.58;100.00
46506;BME280;32220;49.808;9.968;2023-11-21T10:16:52;98618.09;;;13.76;93.98
46506;BME280;32220;49.808;9.968;2023-11-21T10:19:20;98625.72;;;13.91;93.29
46506;BME280;32220;49.808;9.968;2023-11-21T10:21:50;98615.66;;;13.95;90.70
46506;BME280;32220;49.808;9.968;2023-11-21T10:24:18;98615.03;;;14.14;91.51
46506;BME280;32220;49.808;9.968;2023-11-21T10:26:46;98614.78;;;14.17;90.60
46506;BME280;32220;49.808;9.968;2023-11-21T10:29:18;98578.50;;;14.05;89.30
46506;BME280;32220;49.808;9.968;2023-11-21T10:31:49;98623.91;;;14.35;85.81
46506;BME280;32220;49.808;9.968;2023-11-21T10:34:17;98619.59;;;14.45;85.98
46506;BME280;32220;49.808;9.968;2023-11-21T10:36:46;98619.44;;;14.58;87.43
46506;BME280;32220;49.808;9.968;2023-11-21T10:39:14;98634.00;;;14.74;85.57
46506;BME280;32220;49.808;9.968;2023-11-21T10:41:45;98611.56;;;14.56;81.98
46506;BME280;32220;49.808;9.968;2023-11-21T10:44:14;98630.25;;;14.77;82.77
46506;BME280;32220;49.808;9.968;2023-11-21T10:46:48;98617.03;;;14.76;81.78
46506;BME280;32220;49.808;9.968;2023-11-21T10:49:17;98623.41;;;14.84;80.40
46506;BME280;32220;49.808;9.968;2023-11-21T10:51:45;98644.19;;;15.01;80.46
46506;BME280;32220;49.808;9.968;2023-11-21T10:54:17;98643.03;;;14.94;79.64
46506;BME280;32220;49.808;9.968;2023-11-21T10:56:45;98641.06;;;14.96;78.54
46506;BME280;32220;49.808;9.968;2023-11-21T10:59:14;98639.44;;;15.05;80.02
46506;BME280;32220;49.808;9.968;2023-11-21T11:01:44;98624.00;;;15.08;80.13
46506;BME280;32220;49.808;9.968;2023-11-21T11:04:13;98630.84;;;15.22;80.46
46506;BME280;32220;49.808;9.968;2023-11-21T11:06:43;98623.56;;;15.24;80.20
46506;BME280;32220;49.808;9.968;2023-11-21T11:09:13;98628.06;;;15.24;77.41
46506;BME280;32220;49.808;9.968;2023-11-21T11:11:43;98645.25;;;15.31;75.02
46506;BME280;32220;49.808;9.968;2023-11-21T11:14:11;98640.75;;;15.31;76.62
46506;BME280;32220;49.808;9.968;2023-11-21T11:16:40;98659.09;;;15.45;75.50
46506;BME280;32220;49.808;9.968;2023-11-21T11:19:09;98638.94;;;15.32;74.67
46506;BME280;32220;49.808;9.968;2023-11-21T11:21:49;98648.63;;;15.33;73.97
46506;BME280;32220;49.808;9.968;2023-11-21T11:24:36;98663.25;;;15.38;73.43
46506;BME280;32220;49.808;9.968;2023-11-21T11:27:19;98642.72;;;15.29;74.41
46506;BME280;32220;49.808;9.968;2023-11-21T11:30:00;98642.97;;;15.26;73.26
46506;BME280;32220;49.808;9.968;2023-11-21T11:32:40;98643.88;;;15.36;74.38
46506;BME280;32220;49.808;9.968;2023-11-21T11:35:15;98649.00;;;15.49;74.00
46506;BME280;32220;49.808;9.968;2023-11-21T11:37:46;98629.47;;;15.49;73.29
46506;BME280;32220;49.808;9.968;2023-11-21T11:40:14;98650.00;;;15.69;73.25
46506;BME280;32220;49.808;9.968;2023-11-21T11:42:56;98630.34;;;15.70;74.00
46506;BME280;32220;49.808;9.968;2023-11-21T11:45:26;98664.16;;;15.90;73.19
46506;BME280;32220;49.808;9.968;2023-11-21T11:48:00;98659.53;;;15.92;71.78
46506;BME280;32220;49.808;9.968;2023-11-21T11:50:28;98655.78;;;16.04;72.21
46506;BME280;32220;49.808;9.968;2023-11-21T11:53:12;98692.66;;;16.20;69.36
46506;BME280;32220;49.808;9.968;2023-11-21T11:55:40;98676.47;;;16.12;69.05
46506;BME280;32220;49.808;9.968;2023-11-21T11:58:08;98674.63;;;16.12;69.88
46506;BME280;32220;49.808;9.968;2023-11-21T12:00:35;98677.16;;;16.04;67.45
46506;BME280;32220;49.808;9.968;2023-11-21T12:03:08;98672.09;;;16.11;68.61
46506;BME280;32220;49.808;9.968;2023-11-21T12:05:36;98674.97;;;16.19;69.84
46506;BME280;32220;49.808;9.968;2023-11-21T12:08:07;98671.75;;;16.35;69.86
46506;BME280;32220;49.808;9.968;2023-11-21T12:10:37;98665.03;;;16.50;69.86
46506;BME280;32220;49.808;9.968;2023-11-21T12:13:06;98681.31;;;16.77;66.22
46506;BME280;32220;49.808;9.968;2023-11-21T12:15:36;98680.75;;;17.03;67.08
46506;BME280;32220;49.808;9.968;2023-11-21T12:18:04;98722.31;;;17.26;61.50
46506;BME280;32220;49.808;9.968;2023-11-21T12:20:32;98704.94;;;17.49;61.75
46506;BME280;32220;49.808;9.968;2023-11-21T12:23:07;98688.50;;;18.01;62.66
46506;BME280;32220;49.808;9.968;2023-11-21T12:25:37;98721.00;;;21.04;57.01
46506;BME280;32220;49.808;9.968;2023-11-21T12:28:05;98757.63;;;23.38;49.67
46506;BME280;32220;49.808;9.968;2023-11-21T12:30:34;98747.78;;;24.57;47.53
46506;BME280;32220;49.808;9.968;2023-11-21T12:33:04;98780.38;;;27.11;43.09
46506;BME280;32220;49.808;9.968;2023-11-21T12:35:35;98798.97;;;28.87;40.47
46506;BME280;32220;49.808;9.968;2023-11-21T12:38:03;98798.81;;;29.72;37.10
46506;BME280;32220;49.808;9.968;2023-11-21T12:40:33;98801.53;;;29.72;36.12
46506;BME280;32220;49.808;9.968;2023-11-21T12:43:01;98836.28;;;28.74;33.38
46506;BME280;32220;49.808;9.968;2023-11-21T12:45:30;98813.91;;;27.25;34.85
46506;BME280;32220;49.808;9.968;2023-11-21T12:47:59;98785.22;;;26.19;37.00
46506;BME280;32220;49.808;9.968;2023-11-21T12:50:30;98777.16;;;25.40;38.26
46506;BME280;32220;49.808;9.968;2023-11-21T12:53:01;98780.41;;;25.15;39.38
46506;BME280;32220;49.808;9.968;2023-11-21T12:55:33;98781.63;;;24.24;41.70
46506;BME280;32220;49.808;9.968;2023-11-21T12:58:04;98792.47;;;23.33;40.61
46506;BME280;32220;49.808;9.968;2023-11-21T13:00:36;98749.97;;;22.40;42.45
46506;BME280;32220;49.808;9.968;2023-11-21T13:03:05;98756.81;;;21.88;43.72
46506;BME280;32220;49.808;9.968;2023-11-21T13:05:34;98735.00;;;21.16;44.05
46506;BME280;32220;49.808;9.968;2023-11-21T13:08:05;98765.41;;;20.92;45.27
46506;BME280;32220;49.808;9.968;2023-11-21T13:10:38;98759.75;;;20.61;45.88
46506;BME280;32220;49.808;9.968;2023-11-21T13:13:10;98725.66;;;20.10;46.80
46506;BME280;32220;49.808;9.968;2023-11-21T13:15:48;98741.19;;;19.90;46.83
46506;BME280;32220;49.808;9.968;2023-11-21T13:18:16;98736.09;;;19.61;48.40
46506;BME280;32220;49.808;9.968;2023-11-21T13:20:44;98758.19;;;19.37;46.86
46506;BME280;32220;49.808;9.968;2023-11-21T13:23:12;98759.69;;;19.05;47.58
46506;BME280;32220;49.808;9.968;2023-11-21T13:25:47;98668.59;;;18.30;48.67
46506;BME280;32220;49.808;9.968;2023-11-21T13:28:16;98678.44;;;18.12;49.28
46506;BME280;32220;49.808;9.968;2023-11-21T13:30:44;98725.94;;;18.20;50.26
46506;BME280;32220;49.808;9.968;2023-11-21T13:33:16;98746.16;;;18.14;51.11
46506;BME280;32220;49.808;9.968;2023-11-21T13:35:54;98711.56;;;17.74;51.58
46506;BME280;32220;49.808;9.968;2023-11-21T13:38:22;98744.97;;;17.80;52.08
46506;BME280;32220;49.808;9.968;2023-11-21T13:40:53;98718.91;;;17.53;52.74
46506;BME280;32220;49.808;9.968;2023-11-21T13:43:23;98742.44;;;17.49;53.05
46506;BME280;32220;49.808;9.968;2023-11-21T13:45:53;98726.66;;;17.27;53.48
46506;BME280;32220;49.808;9.968;2023-11-21T13:48:30;98722.13;;;17.08;53.77
46506;BME280;32220;49.808;9.968;2023-11-21T13:51:11;98730.75;;;16.93;54.69
46506;BME280;32220;49.808;9.968;2023-11-21T13:53:44;98724.63;;;16.71;54.96
46506;BME280;32220;49.808;9.968;2023-11-21T13:56:15;98744.00;;;16.54;55.31
46506;BME280;32220;49.808;9.968;2023-11-21T13:58:48;98730.66;;;16.24;55.85
46506;BME280;32220;49.808;9.968;2023-11-21T14:01:19;98666.22;;;15.56;56.27
46506;BME280;32220;49.808;9.968;2023-11-21T14:04:08;98734.00;;;15.65;57.46
46506;BME280;32220;49.808;9.968;2023-11-21T14:06:46;98741.63;;;15.37;58.09
46506;BME280;32220;49.808;9.968;2023-11-21T14:09:15;98741.25;;;15.10;58.85
46506;BME280;32220;49.808;9.968;2023-11-21T14:11:51;98725.38;;;14.77;60.20
46506;BME280;32220;49.808;9.968;2023-11-21T14:14:20;98744.06;;;14.65;60.80
46506;BME280;32220;49.808;9.968;2023-11-21T14:16:47;98683.06;;;14.18;61.98
46506;BME280;32220;49.808;9.968;2023-11-21T14:19:15;98723.34;;;14.35;62.57
46506;BME280;32220;49.808;9.968;2023-11-21T14:21:43;98708.44;;;14.22;63.29
46506;BME280;32220;49.808;9.968;2023-11-21T14:24:12;98720.81;;;14.23;63.63
46506;BME280;32220;49.808;9.968;2023-11-21T14:26:40;98716.44;;;14.11;63.89
46506;BME280;32220;49.808;9.968;2023-11-21T14:29:10;98711.84;;;14.01;64.40
46506;BME280;32220;49.808;9.968;2023-11-21T14:31:40;98734.63;;;14.06;64.60
46506;BME280;32220;49.808;9.968;2023-11-21T14:34:09;98746.84;;;13.97;65.05
46506;BME280;32220;49.808;9.968;2023-11-21T14:36:38;98721.78;;;13.77;66.16
46506;BME280;32220;49.808;9.968;2023-11-21T14:39:06;98733.59;;;13.73;66.04
46506;BME280;32220;49.808;9.968;2023-11-21T14:41:47;98721.00;;;13.53;66.26
46506;BME280;32220;49.808;9.968;2023-11-21T14:44:17;98755.63;;;13.64;67.60
46506;BME280;32220;49.808;9.968;2023-11-21T14:46:44;98741.06;;;13.46;67.68
46506;BME280;32220;49.808;9.968;2023-11-21T14:49:15;98753.41;;;13.47;68.60
46506;BME280;32220;49.808;9.968;2023-11-21T14:51:47;98745.63;;;13.33;69.12
46506;BME280;32220;49.808;9.968;2023-11-21T14:54:27;98751.00;;;13.20;69.28
46506;BME280;32220;49.808;9.968;2023-11-21T14:57:07;98748.38;;;13.07;70.03
46506;BME280;32220;49.808;9.968;2023-11-21T14:59:43;98775.72;;;13.09;70.04
46506;BME280;32220;49.808;9.968;2023-11-21T15:02:09;98764.41;;;12.94;70.08
46506;BME280;32220;49.808;9.968;2023-11-21T15:04:46;98776.84;;;12.94;70.12
46506;BME280;32220;49.808;9.968;2023-11-21T15:07:14;98772.69;;;12.90;70.76
46506;BME280;32220;49.808;9.968;2023-11-21T15:09:41;98753.28;;;12.77;71.54
46506;BME280;32220;49.808;9.968;2023-11-21T15:12:09;98775.81;;;12.84;71.09
46506;BME280;32220;49.808;9.968;2023-11-21T15:14:52;98766.94;;;12.72;71.32
46506;BME280;32220;49.808;9.968;2023-11-21T15:17:21;98776.06;;;12.68;71.67
46506;BME280;32220;49.808;9.968;2023-11-21T15:19:53;98775.31;;;12.66;72.08
46506;BME280;32220;49.808;9.968;2023-11-21T15:22:21;98772.28;;;12.59;72.22
46506;BME280;32220;49.808;9.968;2023-11-21T15:24:49;98793.81;;;12.68;72.65
46506;BME280;32220;49.808;9.968;2023-11-21T15:27:19;98778.88;;;12.54;73.19
46506;BME280;32220;49.808;9.968;2023-11-21T15:29:47;98758.09;;;12.35;73.80
46506;BME280;32220;49.808;9.968;2023-11-21T15:32:17;98798.41;;;12.53;73.90
46506;BME280;32220;49.808;9.968;2023-11-21T15:34:45;98799.47;;;12.50;74.23
46506;BME280;32220;49.808;9.968;2023-11-21T15:37:13;98800.78;;;12.45;74.05
46506;BME280;32220;49.808;9.968;2023-11-21T15:39:40;98795.03;;;12.38;74.10
46506;BME280;32220;49.808;9.968;2023-11-21T15:42:08;98793.59;;;12.34;73.88
46506;BME280;32220;49.808;9.968;2023-11-21T15:44:36;98796.56;;;12.30;74.31
46506;BME280;32220;49.808;9.968;2023-11-21T15:47:04;98806.31;;;12.29;74.30
46506;BME280;32220;49.808;9.968;2023-11-21T15:49:36;98825.44;;;12.34;73.96
46506;BME280;32220;49.808;9.968;2023-11-21T15:52:04;98823.94;;;12.30;74.53
46506;BME280;32220;49.808;9.968;2023-11-21T15:54:32;98807.28;;;12.15;74.74
46506;BME280;32220;49.808;9.968;2023-11-21T15:57:00;98801.03;;;12.04;75.64
46506;BME280;32220;49.808;9.968;2023-11-21T15:59:30;98827.66;;;12.15;76.04
46506;BME280;32220;49.808;9.968;2023-11-21T16:01:59;98824.59;;;12.08;76.15
46506;BME280;32220;49.808;9.968;2023-11-21T16:04:26;98833.81;;;12.03;75.81
46506;BME280;32220;49.808;9.968;2023-11-21T16:06:55;98831.59;;;11.97;75.86
46506;BME280;32220;49.808;9.968;2023-11-21T16:09:24;98775.47;;;11.50;76.95
46506;BME280;32220;49.808;9.968;2023-11-21T16:11:56;98837.53;;;11.87;77.38
46506;BME280;32220;49.808;9.968;2023-11-21T16:14:28;98842.22;;;11.84;77.57
46506;BME280;32220;49.808;9.968;2023-11-21T16:17:01;98839.09;;;11.77;77.04
46506;BME280;32220;49.808;9.968;2023-11-21T16:19:29;98829.63;;;11.73;76.82
46506;BME280;32220;49.808;9.968;2023-11-21T16:21:58;98844.22;;;11.80;76.74
46506;BME280;32220;49.808;9.968;2023-11-21T16:24:26;98824.72;;;11.67;76.76
46506;BME280;32220;49.808;9.968;2023-11-21T16:26:54;98838.00;;;11.67;76.89
46506;BME280;32220;49.808;9.968;2023-11-21T16:29:22;98851.63;;;11.75;76.78
46506;BME280;32220;49.808;9.968;2023-11-21T16:31:50;98851.25;;;11.67;76.38
46506;BME280;32220;49.808;9.968;2023-11-21T16:34:20;98848.91;;;11.63;76.77
46506;BME280;32220;49.808;9.968;2023-11-21T16:36:49;98870.47;;;11.71;76.75
